createdAt,value
2022-09-18T00:01:37.850Z,4.50
2022-09-18T00:04:07.860Z,4.30
2022-09-18T00:06:39.815Z,4.70
2022-09-18T00:09:11.652Z,6.00
2022-09-18T00:11:42.890Z,6.20
2022-09-18T00:14:15.884Z,6.90
2022-09-18T00:16:43.975Z,7.20
2022-09-18T00:19:12.516Z,6.70
2022-09-18T00:21:43.017Z,7.90
2022-09-18T00:24:11.800Z,8.10
2022-09-18T00:26:39.854Z,8.20
2022-09-18T00:29:08.098Z,6.80
2022-09-18T00:31:36.805Z,4.60
2022-09-18T00:34:08.819Z,3.10
2022-09-18T00:36:39.289Z,2.20
2022-09-18T00:39:08.926Z,1.80
2022-09-18T00:41:39.855Z,1.40
2022-09-18T00:44:45.357Z,1.10
2022-09-18T00:47:16.303Z,1.10
2022-09-18T00:49:56.597Z,1.00
2022-09-18T00:52:30.214Z,1.00
2022-09-18T00:55:07.997Z,0.80
2022-09-18T00:57:41.615Z,1.40
2022-09-18T01:00:14.554Z,1.00
2022-09-18T01:02:44.820Z,1.00
2022-09-18T01:05:17.242Z,1.20
2022-09-18T01:07:54.079Z,1.00
2022-09-18T01:10:27.874Z,0.80
2022-09-18T01:13:05.782Z,1.30
2022-09-18T01:15:45.001Z,1.10
2022-09-18T01:18:28.192Z,1.00
2022-09-18T01:21:13.552Z,1.20
2022-09-18T01:24:00.367Z,1.20
2022-09-18T01:27:04.925Z,1.30
2022-09-18T01:29:36.058Z,1.30
2022-09-18T01:32:23.219Z,1.30
2022-09-18T01:35:47.190Z,1.40
2022-09-18T01:38:26.912Z,1.30
2022-09-18T01:41:16.756Z,1.20
2022-09-18T01:43:47.791Z,1.40
2022-09-18T01:46:19.866Z,1.30
2022-09-18T01:48:57.329Z,1.60
2022-09-18T01:51:36.702Z,1.30
2022-09-18T01:54:12.967Z,1.60
2022-09-18T01:56:52.676Z,1.90
2022-09-18T01:59:33.733Z,2.00
2022-09-18T02:02:18.436Z,2.00
2022-09-18T02:04:50.813Z,2.10
2022-09-18T02:07:19.441Z,2.30
2022-09-18T02:09:48.190Z,1.90
2022-09-18T02:12:21.331Z,2.00
2022-09-18T02:14:56.261Z,2.10
2022-09-18T02:17:49.344Z,2.10
2022-09-18T02:20:29.669Z,2.80
2022-09-18T02:23:02.587Z,3.00
2022-09-18T02:25:37.384Z,2.40
2022-09-18T02:28:08.554Z,2.80
2022-09-18T02:30:41.112Z,2.80
2022-09-18T02:33:32.646Z,2.80
2022-09-18T02:36:46.946Z,3.10
2022-09-18T02:39:24.149Z,3.50
2022-09-18T02:42:23.547Z,3.00
2022-09-18T02:45:17.397Z,2.80
2022-09-18T02:48:04.304Z,3.20
2022-09-18T02:50:55.660Z,3.20
2022-09-18T02:53:28.222Z,2.60
2022-09-18T02:56:06.614Z,2.90
2022-09-18T02:58:44.821Z,2.80
2022-09-18T03:01:15.033Z,2.70
2022-09-18T03:03:43.234Z,2.60
2022-09-18T03:06:12.913Z,1.90
2022-09-18T03:08:41.779Z,2.50
2022-09-18T03:11:10.049Z,1.90
2022-09-18T03:13:39.008Z,2.10
2022-09-18T03:16:06.979Z,2.70
2022-09-18T03:18:35.043Z,2.30
2022-09-18T03:21:03.072Z,2.70
2022-09-18T03:23:31.097Z,2.70
2022-09-18T03:26:15.173Z,2.60
2022-09-18T03:28:46.206Z,2.40
2022-09-18T03:31:15.613Z,2.40
2022-09-18T03:33:45.202Z,2.30
2022-09-18T03:36:13.855Z,2.40
2022-09-18T03:38:42.650Z,2.50
2022-09-18T03:41:11.039Z,2.20
2022-09-18T03:43:44.050Z,2.40
2022-09-18T03:46:12.720Z,2.30
2022-09-18T03:48:40.682Z,2.70
2022-09-18T03:51:08.709Z,2.10
2022-09-18T03:53:36.659Z,2.20
2022-09-18T03:56:27.564Z,2.30
2022-09-18T03:59:19.079Z,2.10
2022-09-18T04:02:11.049Z,2.00
2022-09-18T04:04:58.099Z,2.10
2022-09-18T04:07:58.421Z,2.00
2022-09-18T04:10:49.735Z,1.80
2022-09-18T04:13:17.751Z,1.80
2022-09-18T04:15:49.990Z,1.90
2022-09-18T04:18:18.430Z,1.60
2022-09-18T04:20:46.550Z,1.80
2022-09-18T04:23:14.723Z,1.70
2022-09-18T04:25:43.693Z,1.80
2022-09-18T04:28:13.688Z,1.50
2022-09-18T04:30:47.005Z,1.60
2022-09-18T04:33:16.099Z,1.60
2022-09-18T04:35:44.549Z,1.60
2022-09-18T04:38:13.008Z,1.70
2022-09-18T04:40:41.180Z,1.50
2022-09-18T04:43:12.612Z,1.70
2022-09-18T04:45:45.193Z,1.80
2022-09-18T04:48:17.790Z,2.10
2022-09-18T04:50:48.103Z,2.30
2022-09-18T04:53:19.184Z,1.80
2022-09-18T04:55:48.384Z,1.70
2022-09-18T04:58:18.997Z,1.60
2022-09-18T05:00:50.902Z,1.40
2022-09-18T05:03:21.252Z,1.50
2022-09-18T05:05:50.779Z,1.80
2022-09-18T05:08:18.896Z,1.30
2022-09-18T05:10:46.978Z,1.60
2022-09-18T05:13:15.543Z,1.60
2022-09-18T05:15:57.556Z,1.70
2022-09-18T05:18:26.688Z,1.40
2022-09-18T05:20:55.949Z,1.50
2022-09-18T05:23:24.187Z,1.80
2022-09-18T05:25:52.244Z,1.40
2022-09-18T05:28:20.263Z,1.70
2022-09-18T05:30:50.287Z,1.60
2022-09-18T05:33:18.418Z,1.40
2022-09-18T05:35:46.568Z,1.70
2022-09-18T05:38:15.434Z,1.70
2022-09-18T05:40:45.217Z,1.50
2022-09-18T05:43:13.446Z,1.50
2022-09-18T05:45:42.899Z,1.60
2022-09-18T05:50:45.822Z,1.40
2022-09-18T05:53:18.995Z,2.30
2022-09-18T05:55:53.486Z,1.50
2022-09-18T05:58:21.842Z,1.70
2022-09-18T06:00:52.871Z,1.50
2022-09-18T06:03:24.391Z,1.30
2022-09-18T06:05:54.229Z,1.80
2022-09-18T06:08:22.923Z,1.20
2022-09-18T06:10:51.070Z,1.60
2022-09-18T06:13:19.492Z,1.40
2022-09-18T06:15:52.722Z,1.40
2022-09-18T06:18:28.695Z,1.20
2022-09-18T06:20:59.134Z,1.30
2022-09-18T06:23:29.747Z,1.20
2022-09-18T06:26:05.803Z,1.30
2022-09-18T06:28:34.480Z,1.30
2022-09-18T06:31:05.112Z,1.20
2022-09-18T06:33:48.820Z,1.60
2022-09-18T06:36:17.134Z,1.40
2022-09-18T06:38:57.925Z,1.40
2022-09-18T06:41:26.083Z,1.10
2022-09-18T06:43:56.058Z,1.10
2022-09-18T06:46:46.671Z,1.10
2022-09-18T06:49:23.164Z,1.50
2022-09-18T06:51:51.192Z,1.50
2022-09-18T06:54:19.202Z,1.80
2022-09-18T06:56:47.997Z,1.30
2022-09-18T06:59:16.305Z,1.50
2022-09-18T07:01:47.085Z,1.50
2022-09-18T07:04:35.265Z,1.40
2022-09-18T07:07:03.206Z,1.50
2022-09-18T07:09:31.133Z,1.70
2022-09-18T07:12:19.340Z,1.60
2022-09-18T07:14:49.767Z,1.80
2022-09-18T07:17:19.771Z,2.20
2022-09-18T07:19:50.715Z,2.00
2022-09-18T07:22:19.854Z,2.00
2022-09-18T07:24:48.565Z,1.90
2022-09-18T07:27:16.982Z,2.00
2022-09-18T07:29:44.965Z,2.80
2022-09-18T07:32:15.778Z,2.90
2022-09-18T07:34:45.871Z,2.60
2022-09-18T07:37:16.586Z,2.00
2022-09-18T07:39:48.247Z,1.80
2022-09-18T07:42:35.136Z,2.20
2022-09-18T07:45:04.110Z,1.80
2022-09-18T07:47:32.119Z,2.50
2022-09-18T07:50:01.755Z,1.90
2022-09-18T07:52:29.896Z,2.10
2022-09-18T07:54:59.313Z,1.90
2022-09-18T07:57:30.811Z,2.30
2022-09-18T08:00:36.645Z,2.40
2022-09-18T08:03:14.969Z,1.70
2022-09-18T08:06:01.049Z,1.80
2022-09-18T08:08:30.551Z,1.40
2022-09-18T08:11:14.516Z,1.70
2022-09-18T08:14:09.209Z,1.40
2022-09-18T08:16:46.897Z,1.60
2022-09-18T08:19:41.229Z,1.70
2022-09-18T08:22:14.685Z,1.60
2022-09-18T08:24:48.803Z,1.10
2022-09-18T08:27:17.126Z,1.30
2022-09-18T08:29:47.853Z,1.20
2022-09-18T08:32:16.344Z,1.70
2022-09-18T08:34:44.714Z,1.40
2022-09-18T08:37:15.236Z,1.40
2022-09-18T08:40:32.390Z,1.20
2022-09-18T08:45:58.818Z,1.10
2022-09-18T08:48:31.447Z,1.10
2022-09-18T08:51:04.022Z,1.40
2022-09-18T08:53:42.349Z,1.30
2022-09-18T08:56:28.887Z,1.10
2022-09-18T08:59:44.628Z,1.20
2022-09-18T09:02:37.454Z,0.90
2022-09-18T09:05:33.729Z,1.20
2022-09-18T09:08:31.954Z,0.70
2022-09-18T09:11:27.495Z,0.90
2022-09-18T09:14:17.144Z,1.10
2022-09-18T09:16:53.211Z,0.80
2022-09-18T09:19:35.543Z,0.60
2022-09-18T09:22:23.454Z,1.00
2022-09-18T09:25:33.461Z,0.60
2022-09-18T09:28:16.675Z,0.70
2022-09-18T09:31:08.545Z,0.60
2022-09-18T09:34:01.006Z,0.80
2022-09-18T09:36:50.823Z,0.80
2022-09-18T09:39:26.325Z,0.80
2022-09-18T09:42:12.908Z,0.50
2022-09-18T09:44:44.994Z,0.50
2022-09-18T09:47:28.370Z,0.70
2022-09-18T09:50:08.612Z,0.90
2022-09-18T09:52:40.436Z,0.90
2022-09-18T09:58:02.277Z,0.70
2022-09-18T10:00:39.224Z,1.00
2022-09-18T10:03:37.671Z,0.90
2022-09-18T10:06:41.717Z,0.80
2022-09-18T10:09:16.021Z,0.70
2022-09-18T10:11:58.797Z,1.10
2022-09-18T10:14:31.581Z,0.90
2022-09-18T10:17:04.886Z,0.90
2022-09-18T10:19:38.527Z,0.80
2022-09-18T10:22:10.487Z,0.60
2022-09-18T10:24:57.091Z,0.90
2022-09-18T10:27:27.227Z,0.60
2022-09-18T10:29:55.400Z,0.50
2022-09-18T10:32:38.621Z,0.60
2022-09-18T10:35:29.915Z,0.20
2022-09-18T10:37:59.457Z,0.70
2022-09-18T10:40:40.382Z,0.70
2022-09-18T10:43:18.768Z,0.60
2022-09-18T10:45:53.314Z,0.90
2022-09-18T10:48:44.501Z,0.90
2022-09-18T10:51:18.209Z,1.10
2022-09-18T10:54:02.325Z,1.00
2022-09-18T10:56:39.626Z,1.20
2022-09-18T10:59:35.310Z,2.10
2022-09-18T11:02:06.486Z,1.70
2022-09-18T11:04:37.014Z,1.30
2022-09-18T11:07:07.780Z,1.70
2022-09-18T11:09:40.410Z,1.50
2022-09-18T11:12:25.459Z,1.60
2022-09-18T11:15:02.945Z,1.80
2022-09-18T11:17:35.261Z,1.90
2022-09-18T11:20:07.229Z,1.30
2022-09-18T11:23:29.604Z,1.40
2022-09-18T11:26:20.411Z,1.50
2022-09-18T11:29:02.620Z,1.70
2022-09-18T11:31:55.185Z,1.10
2022-09-18T11:34:27.010Z,1.50
2022-09-18T11:37:00.081Z,1.10
2022-09-18T11:39:39.010Z,1.40
2022-09-18T11:42:14.687Z,1.10
2022-09-18T11:44:45.668Z,1.40
2022-09-18T11:47:25.822Z,1.10
2022-09-18T11:50:05.089Z,1.00
2022-09-18T11:52:44.031Z,1.20
2022-09-18T11:55:31.260Z,1.00
2022-09-18T11:58:23.990Z,1.20
2022-09-18T12:01:13.715Z,1.30
2022-09-18T12:03:52.019Z,1.20
2022-09-18T12:06:28.487Z,1.10
2022-09-18T12:08:58.453Z,1.20
2022-09-18T12:11:42.605Z,1.00
2022-09-18T12:14:25.822Z,1.20
2022-09-18T12:17:10.510Z,1.10
2022-09-18T12:19:42.942Z,0.90
2022-09-18T12:22:19.972Z,1.00
2022-09-18T12:24:49.336Z,1.00
2022-09-18T12:27:29.765Z,1.20
2022-09-18T12:30:11.481Z,1.00
2022-09-18T12:33:13.312Z,1.10
2022-09-18T12:35:50.754Z,1.20
2022-09-18T12:38:58.164Z,0.90
2022-09-18T12:41:32.163Z,0.90
2022-09-18T12:44:18.215Z,1.20
2022-09-18T12:47:33.644Z,1.10
2022-09-18T12:50:19.720Z,1.10
2022-09-18T12:53:09.492Z,0.80
2022-09-18T12:55:51.470Z,0.90
2022-09-18T12:58:28.402Z,0.70
2022-09-18T13:01:03.570Z,0.80
2022-09-18T13:03:37.012Z,0.60
2022-09-18T13:06:12.473Z,0.90
2022-09-18T13:08:54.716Z,1.00
2022-09-18T13:11:52.753Z,0.90
2022-09-18T13:14:31.554Z,0.80
2022-09-18T13:17:08.183Z,0.60
2022-09-18T13:19:42.961Z,0.80
2022-09-18T13:22:17.846Z,1.40
2022-09-18T13:24:49.886Z,0.80
2022-09-18T13:27:20.395Z,0.90
2022-09-18T13:29:51.407Z,1.10
2022-09-18T13:32:22.587Z,0.80
2022-09-18T13:34:56.884Z,1.00
2022-09-18T13:37:27.665Z,0.90
2022-09-18T13:40:11.028Z,1.00
2022-09-18T13:42:43.034Z,0.90
2022-09-18T13:45:19.022Z,0.80
2022-09-18T13:48:22.575Z,0.70
2022-09-18T13:51:05.952Z,0.70
2022-09-18T13:53:39.105Z,0.70
2022-09-18T13:56:16.184Z,0.60
2022-09-18T13:58:52.682Z,0.60
2022-09-18T14:01:43.031Z,0.50
2022-09-18T14:04:39.393Z,0.80
2022-09-18T14:07:16.426Z,0.50
2022-09-18T14:09:55.871Z,0.60
2022-09-18T14:12:24.551Z,0.60
2022-09-18T14:15:07.021Z,0.60
2022-09-18T14:17:38.181Z,0.40
2022-09-18T14:20:22.072Z,0.60
2022-09-18T14:22:50.278Z,0.50
2022-09-18T14:25:45.309Z,0.50
2022-09-18T14:28:14.749Z,0.60
2022-09-18T14:30:42.797Z,0.60
2022-09-18T14:33:11.819Z,0.60
2022-09-18T14:35:43.115Z,0.70
2022-09-18T14:38:25.020Z,0.70
2022-09-18T14:41:01.132Z,0.90
2022-09-18T14:43:29.131Z,0.60
2022-09-18T14:45:57.593Z,0.90
2022-09-18T14:48:30.271Z,0.40
2022-09-18T14:51:08.136Z,0.60
2022-09-18T14:53:43.965Z,0.70
2022-09-18T14:56:20.479Z,0.80
2022-09-18T14:58:50.736Z,0.90
2022-09-18T15:01:26.828Z,0.80
2022-09-18T15:03:57.449Z,0.80
2022-09-18T15:06:35.433Z,0.80
2022-09-18T15:09:05.295Z,1.00
2022-09-18T15:11:52.284Z,0.90
2022-09-18T15:14:29.411Z,0.70
2022-09-18T15:17:00.018Z,0.60
2022-09-18T15:19:29.700Z,0.90
2022-09-18T15:22:02.543Z,0.60
2022-09-18T15:24:31.474Z,0.60
2022-09-18T15:27:02.593Z,0.70
2022-09-18T15:30:18.783Z,0.70
2022-09-18T15:32:51.563Z,0.80
2022-09-18T15:35:29.533Z,0.90
2022-09-18T15:38:03.063Z,0.90
2022-09-18T15:40:37.525Z,0.90
2022-09-18T15:43:27.492Z,1.00
2022-09-18T15:46:06.254Z,0.80
2022-09-18T15:48:36.024Z,1.10
2022-09-18T15:51:22.857Z,1.20
2022-09-18T15:54:12.325Z,1.10
2022-09-18T15:56:53.212Z,1.10
2022-09-18T15:59:34.724Z,0.80
2022-09-18T16:02:18.524Z,1.20
2022-09-18T16:04:46.820Z,1.10
2022-09-18T16:07:23.363Z,0.90
2022-09-18T16:09:52.050Z,1.00
2022-09-18T16:12:36.326Z,1.00
2022-09-18T16:15:25.616Z,0.80
2022-09-18T16:18:05.945Z,0.90
2022-09-18T16:20:37.690Z,1.10
2022-09-18T16:23:33.042Z,1.00
2022-09-18T16:26:06.415Z,1.00
2022-09-18T16:28:43.239Z,1.20
2022-09-18T16:31:14.006Z,1.30
2022-09-18T16:33:51.802Z,1.30
2022-09-18T16:36:35.942Z,1.10
2022-09-18T16:39:08.285Z,0.80
2022-09-18T16:41:37.234Z,1.10
2022-09-18T16:44:07.796Z,1.20
2022-09-18T16:47:00.887Z,1.00
2022-09-18T16:49:33.949Z,1.20
2022-09-18T16:52:02.496Z,0.90
2022-09-18T16:54:30.743Z,1.20
2022-09-18T16:57:07.372Z,1.20
2022-09-18T16:59:39.544Z,1.20
2022-09-18T17:02:08.445Z,1.60
2022-09-18T17:04:36.576Z,1.70
2022-09-18T17:07:06.490Z,1.20
2022-09-18T17:09:35.270Z,0.30
2022-09-18T17:12:04.208Z,1.50
2022-09-18T17:14:32.407Z,1.40
2022-09-18T17:17:01.004Z,1.30
2022-09-18T17:19:29.221Z,1.30
2022-09-18T17:21:57.505Z,1.50
2022-09-18T17:24:27.713Z,1.10
2022-09-18T17:26:55.783Z,1.20
2022-09-18T17:29:23.883Z,1.40
2022-09-18T17:31:52.502Z,1.10
2022-09-18T17:34:22.228Z,1.10
2022-09-18T17:36:50.527Z,1.00
2022-09-18T17:39:18.615Z,1.00
2022-09-18T17:41:46.748Z,1.10
2022-09-18T17:44:15.647Z,1.00
2022-09-18T17:46:44.467Z,1.30
2022-09-18T17:49:12.438Z,1.40
2022-09-18T17:51:40.462Z,1.30
2022-09-18T17:54:10.436Z,1.10
2022-09-18T17:56:38.948Z,0.90
2022-09-18T17:59:10.837Z,1.00
2022-09-18T18:01:43.230Z,0.90
2022-09-18T18:04:13.796Z,1.00
2022-09-18T18:06:42.398Z,1.30
2022-09-18T18:09:10.640Z,1.00
2022-09-18T18:11:38.775Z,0.80
2022-09-18T18:14:06.890Z,1.10
2022-09-18T18:16:35.084Z,1.00
2022-09-18T18:19:08.313Z,1.00
2022-09-18T18:21:36.367Z,0.90
2022-09-18T18:24:09.201Z,1.00
2022-09-18T18:26:39.512Z,1.40
2022-09-18T18:29:11.077Z,1.40
2022-09-18T18:31:42.121Z,1.20
2022-09-18T18:34:12.141Z,1.70
2022-09-18T18:36:42.727Z,1.10
2022-09-18T18:39:13.085Z,0.90
2022-09-18T18:41:42.641Z,1.40
2022-09-18T18:44:11.614Z,1.20
2022-09-18T18:46:40.511Z,1.40
2022-09-18T18:49:11.337Z,1.90
2022-09-18T18:51:47.965Z,2.00
2022-09-18T18:54:18.280Z,1.70
2022-09-18T18:56:47.224Z,2.10
2022-09-18T18:59:19.602Z,1.40
2022-09-18T19:01:47.979Z,1.50
2022-09-18T19:04:19.364Z,1.50
2022-09-18T19:06:49.245Z,1.60
2022-09-18T19:09:22.768Z,1.40
2022-09-18T19:11:52.627Z,1.40
2022-09-18T19:14:23.502Z,1.40
2022-09-18T19:16:52.919Z,1.00
2022-09-18T19:19:23.618Z,1.10
2022-09-18T19:21:52.939Z,2.10
2022-09-18T19:24:21.816Z,1.10
2022-09-18T19:26:49.887Z,1.00
2022-09-18T19:29:20.200Z,1.20
2022-09-18T19:31:49.001Z,1.20
2022-09-18T19:34:20.344Z,1.10
2022-09-18T19:36:50.508Z,1.20
2022-09-18T19:39:21.164Z,1.40
2022-09-18T19:42:01.464Z,1.10
2022-09-18T19:44:31.906Z,1.50
2022-09-18T19:47:04.492Z,1.40
2022-09-18T19:49:37.294Z,1.20
2022-09-18T19:52:23.029Z,1.30
2022-09-18T19:54:52.200Z,1.30
2022-09-18T19:57:21.311Z,1.50
2022-09-18T19:59:52.842Z,1.70
2022-09-18T20:02:22.364Z,1.60
2022-09-18T20:04:50.378Z,1.70
2022-09-18T20:07:18.366Z,1.90
2022-09-18T20:09:46.395Z,1.90
2022-09-18T20:12:14.556Z,2.20
2022-09-18T20:14:42.617Z,2.40
2022-09-18T20:17:11.048Z,2.50
2022-09-18T20:19:39.027Z,2.90
2022-09-18T20:22:07.389Z,3.00
2022-09-18T20:24:35.582Z,3.00
2022-09-18T20:27:03.906Z,2.70
2022-09-18T20:29:31.884Z,2.60
2022-09-18T20:32:00.050Z,2.50
2022-09-18T20:34:28.242Z,2.20
2022-09-18T20:36:56.198Z,2.50
2022-09-18T20:39:24.218Z,2.50
2022-09-18T20:41:52.056Z,2.90
2022-09-18T20:44:21.165Z,2.80
2022-09-18T20:46:50.586Z,3.50
2022-09-18T20:49:18.817Z,3.50
2022-09-18T20:51:46.958Z,3.50
2022-09-18T20:54:15.405Z,3.70
2022-09-18T20:56:44.567Z,3.00
2022-09-18T20:59:16.698Z,2.80
2022-09-18T21:01:47.208Z,2.30
2022-09-18T21:04:17.835Z,2.60
2022-09-18T21:06:55.434Z,2.10
2022-09-18T21:09:26.534Z,2.40
2022-09-18T21:11:56.998Z,1.80
2022-09-18T21:14:25.617Z,2.20
2022-09-18T21:16:54.734Z,1.90
2022-09-18T21:19:24.465Z,1.70
2022-09-18T21:21:52.399Z,1.50
2022-09-18T21:24:21.467Z,1.30
2022-09-18T21:26:50.277Z,1.60
2022-09-18T21:29:21.337Z,1.60
2022-09-18T21:31:52.400Z,1.50
2022-09-18T21:34:27.108Z,1.90
2022-09-18T21:36:58.886Z,1.80
2022-09-18T21:39:30.609Z,1.70
2022-09-18T21:42:00.590Z,1.80
2022-09-18T21:44:31.985Z,1.60
2022-09-18T21:47:02.249Z,1.60
2022-09-18T21:49:31.394Z,1.70
2022-09-18T21:52:05.242Z,1.60
2022-09-18T21:54:34.235Z,1.50
2022-09-18T21:57:02.556Z,1.50
2022-09-18T21:59:32.516Z,1.30
2022-09-18T22:02:03.335Z,1.50
2022-09-18T22:04:32.891Z,1.40
2022-09-18T22:07:02.084Z,1.50
2022-09-18T22:09:33.992Z,1.60
2022-09-18T22:12:03.084Z,1.40
2022-09-18T22:14:33.443Z,1.60
2022-09-18T22:17:04.610Z,2.00
2022-09-18T22:47:11.943Z,1.60
2022-09-18T22:49:39.893Z,1.60
2022-09-18T22:52:07.902Z,1.80
2022-09-18T22:54:35.961Z,1.50
2022-09-18T22:57:03.987Z,1.80
2022-09-18T22:59:32.037Z,1.50
2022-09-18T23:02:03.813Z,1.40
2022-09-18T23:04:33.793Z,1.70
2022-09-18T23:07:03.391Z,1.40
2022-09-18T23:09:31.471Z,1.20
2022-09-18T23:12:00.062Z,1.40
2022-09-18T23:14:30.305Z,1.60
2022-09-18T23:16:59.843Z,1.60
2022-09-18T23:19:30.860Z,2.00
2022-09-18T23:21:59.322Z,1.90
2022-09-18T23:24:28.089Z,2.00
2022-09-18T23:26:58.255Z,2.30
2022-09-18T23:29:28.442Z,2.10
2022-09-18T23:31:57.685Z,2.00
2022-09-18T23:34:31.824Z,1.70
2022-09-18T23:37:00.550Z,2.20
2022-09-18T23:39:31.537Z,1.90
2022-09-18T23:42:02.211Z,2.00
2022-09-18T23:44:31.605Z,1.90
2022-09-18T23:47:00.589Z,1.90
2022-09-18T23:49:29.361Z,2.00
2022-09-18T23:51:59.532Z,1.80
2022-09-18T23:54:30.964Z,1.70
2022-09-18T23:56:59.147Z,2.10
2022-09-18T23:59:27.721Z,1.80
